sensor_id;sensor_type;location;lat;lon;timestamp;temperature;humidity
35692;DHT22;26978;44.830;-0.674;2022-09-17T00:01:07;13.60;97.30
35692;DHT22;26978;44.830;-0.674;2022-09-17T00:03:33;13.60;97.30
35692;DHT22;26978;44.830;-0.674;2022-09-17T00:06:08;13.60;97.40
35692;DHT22;26978;44.830;-0.674;2022-09-17T00:08:34;13.60;97.70
35692;DHT22;26978;44.830;-0.674;2022-09-17T00:11:07;13.50;97.80
35692;DHT22;26978;44.830;-0.674;2022-09-17T00:13:33;13.40;98.10
35692;DHT22;26978;44.830;-0.674;2022-09-17T00:15:58;13.30;98.60
35692;DHT22;26978;44.830;-0.674;2022-09-17T00:18:24;13.30;99.50
35692;DHT22;26978;44.830;-0.674;2022-09-17T00:20:49;13.30;99.80
35692;DHT22;26978;44.830;-0.674;2022-09-17T00:23:15;13.30;99.90
35692;DHT22;26978;44.830;-0.674;2022-09-17T00:25:42;13.40;99.90
35692;DHT22;26978;44.830;-0.674;2022-09-17T00:28:07;13.40;99.80
35692;DHT22;26978;44.830;-0.674;2022-09-17T00:30:33;13.40;99.90
35692;DHT22;26978;44.830;-0.674;2022-09-17T00:32:59;13.40;99.90
35692;DHT22;26978;44.830;-0.674;2022-09-17T00:35:25;13.30;99.90
35692;DHT22;26978;44.830;-0.674;2022-09-17T00:37:50;13.20;99.90
35692;DHT22;26978;44.830;-0.674;2022-09-17T00:40:16;13.20;99.90
35692;DHT22;26978;44.830;-0.674;2022-09-17T00:42:42;13.10;99.90
35692;DHT22;26978;44.830;-0.674;2022-09-17T00:45:09;13.10;99.90
35692;DHT22;26978;44.830;-0.674;2022-09-17T00:47:37;13.10;99.90
35692;DHT22;26978;44.830;-0.674;2022-09-17T00:50:15;13.10;99.90
35692;DHT22;26978;44.830;-0.674;2022-09-17T00:55:18;13.00;99.90
35692;DHT22;26978;44.830;-0.674;2022-09-17T00:57:44;12.90;99.90
35692;DHT22;26978;44.830;-0.674;2022-09-17T01:00:11;12.80;99.90
35692;DHT22;26978;44.830;-0.674;2022-09-17T01:02:37;12.80;99.90
35692;DHT22;26978;44.830;-0.674;2022-09-17T01:05:03;12.70;99.90
35692;DHT22;26978;44.830;-0.674;2022-09-17T01:07:36;12.60;99.90
35692;DHT22;26978;44.830;-0.674;2022-09-17T01:10:15;12.50;99.90
35692;DHT22;26978;44.830;-0.674;2022-09-17T01:25:56;12.40;99.90
35692;DHT22;26978;44.830;-0.674;2022-09-17T01:33:06;12.50;99.90
35692;DHT22;26978;44.830;-0.674;2022-09-17T01:38:27;12.60;99.90
35692;DHT22;26978;44.830;-0.674;2022-09-17T01:46:32;12.70;99.90
35692;DHT22;26978;44.830;-0.674;2022-09-17T01:49:00;12.90;99.90
35692;DHT22;26978;44.830;-0.674;2022-09-17T01:51:28;13.10;99.90
35692;DHT22;26978;44.830;-0.674;2022-09-17T01:53:56;13.10;99.90
35692;DHT22;26978;44.830;-0.674;2022-09-17T01:56:26;13.10;99.90
35692;DHT22;26978;44.830;-0.674;2022-09-17T01:58:59;13.10;99.90
35692;DHT22;26978;44.830;-0.674;2022-09-17T02:01:26;13.10;99.90
35692;DHT22;26978;44.830;-0.674;2022-09-17T02:04:13;13.00;99.90
35692;DHT22;26978;44.830;-0.674;2022-09-17T02:06:40;13.00;99.90
35692;DHT22;26978;44.830;-0.674;2022-09-17T02:09:16;13.10;99.90
35692;DHT22;26978;44.830;-0.674;2022-09-17T02:11:43;13.10;99.90
35692;DHT22;26978;44.830;-0.674;2022-09-17T02:14:14;13.10;99.90
35692;DHT22;26978;44.830;-0.674;2022-09-17T02:16:43;13.10;99.80
35692;DHT22;26978;44.830;-0.674;2022-09-17T02:24:22;13.00;99.90
35692;DHT22;26978;44.830;-0.674;2022-09-17T02:26:59;13.00;99.90
35692;DHT22;26978;44.830;-0.674;2022-09-17T02:29:36;13.10;99.70
35692;DHT22;26978;44.830;-0.674;2022-09-17T02:32:02;13.10;99.90
35692;DHT22;26978;44.830;-0.674;2022-09-17T02:34:28;13.00;99.90
35692;DHT22;26978;44.830;-0.674;2022-09-17T02:36:54;12.90;99.90
35692;DHT22;26978;44.830;-0.674;2022-09-17T02:39:20;12.80;99.90
35692;DHT22;26978;44.830;-0.674;2022-09-17T02:44:15;12.80;99.90
35692;DHT22;26978;44.830;-0.674;2022-09-17T02:57:51;12.70;99.90
35692;DHT22;26978;44.830;-0.674;2022-09-17T03:00:19;12.80;99.90
35692;DHT22;26978;44.830;-0.674;2022-09-17T03:02:58;12.70;99.90
35692;DHT22;26978;44.830;-0.674;2022-09-17T03:05:26;12.60;99.90
35692;DHT22;26978;44.830;-0.674;2022-09-17T03:07:55;12.70;99.90
35692;DHT22;26978;44.830;-0.674;2022-09-17T03:10:21;12.60;99.90
35692;DHT22;26978;44.830;-0.674;2022-09-17T03:12:47;12.60;99.90
35692;DHT22;26978;44.830;-0.674;2022-09-17T03:15:12;12.60;99.90
35692;DHT22;26978;44.830;-0.674;2022-09-17T03:17:38;12.70;99.90
35692;DHT22;26978;44.830;-0.674;2022-09-17T03:20:04;12.70;99.90
35692;DHT22;26978;44.830;-0.674;2022-09-17T03:22:30;12.70;99.90
35692;DHT22;26978;44.830;-0.674;2022-09-17T03:24:55;12.50;99.90
35692;DHT22;26978;44.830;-0.674;2022-09-17T03:27:21;12.50;99.90
35692;DHT22;26978;44.830;-0.674;2022-09-17T03:29:47;12.60;99.90
35692;DHT22;26978;44.830;-0.674;2022-09-17T03:32:12;12.50;99.90
35692;DHT22;26978;44.830;-0.674;2022-09-17T03:34:38;12.40;99.90
35692;DHT22;26978;44.830;-0.674;2022-09-17T03:37:03;12.40;99.90
35692;DHT22;26978;44.830;-0.674;2022-09-17T03:39:29;12.40;99.90
35692;DHT22;26978;44.830;-0.674;2022-09-17T03:41:54;12.40;99.90
35692;DHT22;26978;44.830;-0.674;2022-09-17T03:44:20;12.50;99.90
35692;DHT22;26978;44.830;-0.674;2022-09-17T03:46:48;12.50;99.90
35692;DHT22;26978;44.830;-0.674;2022-09-17T03:49:13;12.40;99.90
35692;DHT22;26978;44.830;-0.674;2022-09-17T03:51:39;12.40;99.90
35692;DHT22;26978;44.830;-0.674;2022-09-17T03:54:04;12.30;99.90
35692;DHT22;26978;44.830;-0.674;2022-09-17T03:56:30;12.30;99.90
35692;DHT22;26978;44.830;-0.674;2022-09-17T03:58:59;12.20;99.90
35692;DHT22;26978;44.830;-0.674;2022-09-17T04:01:25;12.20;99.90
35692;DHT22;26978;44.830;-0.674;2022-09-17T04:03:51;12.20;99.90
35692;DHT22;26978;44.830;-0.674;2022-09-17T04:06:16;12.20;99.90
35692;DHT22;26978;44.830;-0.674;2022-09-17T04:08:42;12.20;99.90
35692;DHT22;26978;44.830;-0.674;2022-09-17T04:11:07;12.00;99.90
35692;DHT22;26978;44.830;-0.674;2022-09-17T04:13:34;11.90;99.90
35692;DHT22;26978;44.830;-0.674;2022-09-17T04:16:00;11.80;99.90
35692;DHT22;26978;44.830;-0.674;2022-09-17T04:18:25;11.90;99.90
35692;DHT22;26978;44.830;-0.674;2022-09-17T04:20:51;11.70;99.90
35692;DHT22;26978;44.830;-0.674;2022-09-17T04:23:17;11.80;99.90
35692;DHT22;26978;44.830;-0.674;2022-09-17T04:25:43;11.70;99.90
35692;DHT22;26978;44.830;-0.674;2022-09-17T04:28:08;11.60;99.90
35692;DHT22;26978;44.830;-0.674;2022-09-17T04:30:34;11.50;99.90
35692;DHT22;26978;44.830;-0.674;2022-09-17T04:32:59;11.50;99.90
35692;DHT22;26978;44.830;-0.674;2022-09-17T04:35:25;11.50;99.90
35692;DHT22;26978;44.830;-0.674;2022-09-17T04:37:51;11.50;99.90
35692;DHT22;26978;44.830;-0.674;2022-09-17T04:40:16;11.40;99.90
35692;DHT22;26978;44.830;-0.674;2022-09-17T04:42:42;11.30;99.90
35692;DHT22;26978;44.830;-0.674;2022-09-17T04:45:07;11.30;99.90
35692;DHT22;26978;44.830;-0.674;2022-09-17T04:47:36;11.30;99.90
35692;DHT22;26978;44.830;-0.674;2022-09-17T04:50:02;11.20;99.90
35692;DHT22;26978;44.830;-0.674;2022-09-17T04:52:27;11.10;99.90
35692;DHT22;26978;44.830;-0.674;2022-09-17T04:54:53;11.10;99.90
35692;DHT22;26978;44.830;-0.674;2022-09-17T04:57:18;11.10;99.90
35692;DHT22;26978;44.830;-0.674;2022-09-17T04:59:44;11.10;99.90
35692;DHT22;26978;44.830;-0.674;2022-09-17T05:02:10;11.10;99.90
35692;DHT22;26978;44.830;-0.674;2022-09-17T05:04:35;11.10;99.90
35692;DHT22;26978;44.830;-0.674;2022-09-17T05:07:01;11.20;99.90
35692;DHT22;26978;44.830;-0.674;2022-09-17T05:09:27;11.10;99.90
35692;DHT22;26978;44.830;-0.674;2022-09-17T05:11:52;11.10;99.90
35692;DHT22;26978;44.830;-0.674;2022-09-17T05:14:18;11.10;99.90
35692;DHT22;26978;44.830;-0.674;2022-09-17T05:16:43;11.20;99.90
35692;DHT22;26978;44.830;-0.674;2022-09-17T05:19:09;11.20;99.90
35692;DHT22;26978;44.830;-0.674;2022-09-17T05:21:34;11.10;99.90
35692;DHT22;26978;44.830;-0.674;2022-09-17T05:24:00;11.10;99.90
35692;DHT22;26978;44.830;-0.674;2022-09-17T05:26:25;11.20;99.90
35692;DHT22;26978;44.830;-0.674;2022-09-17T05:28:51;11.10;99.90
35692;DHT22;26978;44.830;-0.674;2022-09-17T05:31:16;11.10;99.90
35692;DHT22;26978;44.830;-0.674;2022-09-17T05:33:42;11.10;99.90
35692;DHT22;26978;44.830;-0.674;2022-09-17T05:36:07;11.00;99.90
35692;DHT22;26978;44.830;-0.674;2022-09-17T05:38:33;10.90;99.90
35692;DHT22;26978;44.830;-0.674;2022-09-17T05:41:02;10.90;99.90
35692;DHT22;26978;44.830;-0.674;2022-09-17T05:43:28;10.90;99.90
35692;DHT22;26978;44.830;-0.674;2022-09-17T05:45:53;10.90;99.90
35692;DHT22;26978;44.830;-0.674;2022-09-17T05:48:19;11.00;99.90
35692;DHT22;26978;44.830;-0.674;2022-09-17T05:50:44;10.90;99.90
35692;DHT22;26978;44.830;-0.674;2022-09-17T05:53:10;10.80;99.90
35692;DHT22;26978;44.830;-0.674;2022-09-17T05:55:36;10.80;99.90
35692;DHT22;26978;44.830;-0.674;2022-09-17T05:58:10;10.80;99.90
35692;DHT22;26978;44.830;-0.674;2022-09-17T06:00:36;10.70;99.90
35692;DHT22;26978;44.830;-0.674;2022-09-17T06:03:02;10.70;99.90
35692;DHT22;26978;44.830;-0.674;2022-09-17T06:05:28;10.70;99.90
35692;DHT22;26978;44.830;-0.674;2022-09-17T06:07:53;10.70;99.90
35692;DHT22;26978;44.830;-0.674;2022-09-17T06:10:19;10.70;99.90
35692;DHT22;26978;44.830;-0.674;2022-09-17T06:12:47;10.80;99.90
35692;DHT22;26978;44.830;-0.674;2022-09-17T06:15:13;10.80;99.90
35692;DHT22;26978;44.830;-0.674;2022-09-17T06:17:39;10.80;99.90
35692;DHT22;26978;44.830;-0.674;2022-09-17T06:20:05;10.80;99.90
35692;DHT22;26978;44.830;-0.674;2022-09-17T06:22:30;10.90;99.90
35692;DHT22;26978;44.830;-0.674;2022-09-17T06:24:56;11.00;99.90
35692;DHT22;26978;44.830;-0.674;2022-09-17T06:27:21;11.10;99.90
35692;DHT22;26978;44.830;-0.674;2022-09-17T06:29:47;11.10;99.90
35692;DHT22;26978;44.830;-0.674;2022-09-17T06:32:13;11.20;99.90
35692;DHT22;26978;44.830;-0.674;2022-09-17T06:34:41;11.30;99.90
35692;DHT22;26978;44.830;-0.674;2022-09-17T06:37:06;11.30;99.90
35692;DHT22;26978;44.830;-0.674;2022-09-17T06:39:32;11.50;99.90
35692;DHT22;26978;44.830;-0.674;2022-09-17T06:41:58;11.50;99.90
35692;DHT22;26978;44.830;-0.674;2022-09-17T06:44:23;11.50;99.90
35692;DHT22;26978;44.830;-0.674;2022-09-17T06:46:49;11.60;99.90
35692;DHT22;26978;44.830;-0.674;2022-09-17T06:49:15;11.60;99.90
35692;DHT22;26978;44.830;-0.674;2022-09-17T06:51:42;11.70;99.90
35692;DHT22;26978;44.830;-0.674;2022-09-17T06:54:07;11.70;99.90
35692;DHT22;26978;44.830;-0.674;2022-09-17T06:56:33;11.80;99.90
35692;DHT22;26978;44.830;-0.674;2022-09-17T06:58:59;11.90;99.90
35692;DHT22;26978;44.830;-0.674;2022-09-17T07:01:25;12.00;99.90
35692;DHT22;26978;44.830;-0.674;2022-09-17T07:03:50;12.10;99.90
35692;DHT22;26978;44.830;-0.674;2022-09-17T07:06:16;12.10;99.90
35692;DHT22;26978;44.830;-0.674;2022-09-17T07:08:41;12.20;99.90
35692;DHT22;26978;44.830;-0.674;2022-09-17T07:11:07;12.20;99.90
35692;DHT22;26978;44.830;-0.674;2022-09-17T07:13:32;12.30;99.90
35692;DHT22;26978;44.830;-0.674;2022-09-17T07:15:59;12.40;99.90
35692;DHT22;26978;44.830;-0.674;2022-09-17T07:18:25;12.50;99.90
35692;DHT22;26978;44.830;-0.674;2022-09-17T07:20:54;12.60;99.90
35692;DHT22;26978;44.830;-0.674;2022-09-17T07:23:21;12.70;99.90
35692;DHT22;26978;44.830;-0.674;2022-09-17T07:25:50;12.80;99.90
35692;DHT22;26978;44.830;-0.674;2022-09-17T07:28:15;12.90;99.90
35692;DHT22;26978;44.830;-0.674;2022-09-17T07:30:41;13.00;99.90
35692;DHT22;26978;44.830;-0.674;2022-09-17T07:33:06;13.10;99.90
35692;DHT22;26978;44.830;-0.674;2022-09-17T07:35:32;13.20;99.90
35692;DHT22;26978;44.830;-0.674;2022-09-17T07:37:57;13.30;99.90
35692;DHT22;26978;44.830;-0.674;2022-09-17T07:40:23;13.30;99.90
35692;DHT22;26978;44.830;-0.674;2022-09-17T07:42:48;13.40;99.90
35692;DHT22;26978;44.830;-0.674;2022-09-17T07:45:15;13.50;99.90
35692;DHT22;26978;44.830;-0.674;2022-09-17T07:47:40;13.50;99.90
35692;DHT22;26978;44.830;-0.674;2022-09-17T07:50:06;13.60;99.90
35692;DHT22;26978;44.830;-0.674;2022-09-17T07:52:32;13.70;99.90
35692;DHT22;26978;44.830;-0.674;2022-09-17T07:54:58;13.70;99.90
35692;DHT22;26978;44.830;-0.674;2022-09-17T07:57:23;13.90;99.90
35692;DHT22;26978;44.830;-0.674;2022-09-17T07:59:49;14.00;99.70
35692;DHT22;26978;44.830;-0.674;2022-09-17T08:02:14;14.00;99.20
35692;DHT22;26978;44.830;-0.674;2022-09-17T08:04:40;14.10;98.80
35692;DHT22;26978;44.830;-0.674;2022-09-17T08:07:09;14.10;99.40
35692;DHT22;26978;44.830;-0.674;2022-09-17T08:09:34;14.20;98.30
35692;DHT22;26978;44.830;-0.674;2022-09-17T08:12:00;14.20;98.00
35692;DHT22;26978;44.830;-0.674;2022-09-17T08:14:25;14.30;97.90
35692;DHT22;26978;44.830;-0.674;2022-09-17T08:16:51;14.50;97.30
35692;DHT22;26978;44.830;-0.674;2022-09-17T08:19:16;14.60;96.90
35692;DHT22;26978;44.830;-0.674;2022-09-17T08:21:43;14.70;96.50
35692;DHT22;26978;44.830;-0.674;2022-09-17T08:24:08;14.90;96.30
35692;DHT22;26978;44.830;-0.674;2022-09-17T08:26:34;14.90;95.90
35692;DHT22;26978;44.830;-0.674;2022-09-17T08:29:00;14.90;96.00
35692;DHT22;26978;44.830;-0.674;2022-09-17T08:31:26;14.90;95.60
35692;DHT22;26978;44.830;-0.674;2022-09-17T08:33:54;14.90;96.10
35692;DHT22;26978;44.830;-0.674;2022-09-17T08:36:20;15.00;95.00
35692;DHT22;26978;44.830;-0.674;2022-09-17T08:38:47;15.10;94.80
35692;DHT22;26978;44.830;-0.674;2022-09-17T08:46:20;15.20;94.90
35692;DHT22;26978;44.830;-0.674;2022-09-17T08:54:09;15.70;93.00
35692;DHT22;26978;44.830;-0.674;2022-09-17T08:56:36;15.70;93.50
35692;DHT22;26978;44.830;-0.674;2022-09-17T08:59:05;15.80;92.20
35692;DHT22;26978;44.830;-0.674;2022-09-17T09:01:33;15.90;92.10
35692;DHT22;26978;44.830;-0.674;2022-09-17T09:06:40;15.90;92.30
35692;DHT22;26978;44.830;-0.674;2022-09-17T09:09:24;15.80;92.10
35692;DHT22;26978;44.830;-0.674;2022-09-17T09:11:56;16.00;91.60
35692;DHT22;26978;44.830;-0.674;2022-09-17T09:14:26;15.80;91.60
35692;DHT22;26978;44.830;-0.674;2022-09-17T09:16:53;15.80;92.00
35692;DHT22;26978;44.830;-0.674;2022-09-17T09:19:21;16.10;91.60
35692;DHT22;26978;44.830;-0.674;2022-09-17T09:27:38;16.60;88.70
35692;DHT22;26978;44.830;-0.674;2022-09-17T09:30:07;16.60;89.10
35692;DHT22;26978;44.830;-0.674;2022-09-17T09:35:11;16.70;88.80
35692;DHT22;26978;44.830;-0.674;2022-09-17T09:37:38;16.90;87.20
35692;DHT22;26978;44.830;-0.674;2022-09-17T09:43:00;17.00;85.00
35692;DHT22;26978;44.830;-0.674;2022-09-17T10:00:41;17.40;77.60
35692;DHT22;26978;44.830;-0.674;2022-09-17T10:03:15;17.50;75.10
35692;DHT22;26978;44.830;-0.674;2022-09-17T10:06:27;17.60;74.30
35692;DHT22;26978;44.830;-0.674;2022-09-17T10:08:32;17.60;74.30
35692;DHT22;26978;44.830;-0.674;2022-09-17T10:13:36;17.70;72.00
35692;DHT22;26978;44.830;-0.674;2022-09-17T10:18:42;17.70;70.60
35692;DHT22;26978;44.830;-0.674;2022-09-17T10:23:52;18.10;70.40
35692;DHT22;26978;44.830;-0.674;2022-09-17T10:26:20;18.00;70.60
35692;DHT22;26978;44.830;-0.674;2022-09-17T10:28:48;18.00;69.40
35692;DHT22;26978;44.830;-0.674;2022-09-17T10:31:14;18.30;70.00
35692;DHT22;26978;44.830;-0.674;2022-09-17T10:33:51;18.40;67.20
35692;DHT22;26978;44.830;-0.674;2022-09-17T10:36:17;18.40;64.80
35692;DHT22;26978;44.830;-0.674;2022-09-17T10:39:00;18.40;65.00
35692;DHT22;26978;44.830;-0.674;2022-09-17T10:42:16;18.50;64.20
35692;DHT22;26978;44.830;-0.674;2022-09-17T10:44:34;18.40;65.10
35692;DHT22;26978;44.830;-0.674;2022-09-17T10:47:01;18.30;63.70
35692;DHT22;26978;44.830;-0.674;2022-09-17T10:49:37;18.50;62.30
35692;DHT22;26978;44.830;-0.674;2022-09-17T10:52:11;18.60;58.30
35692;DHT22;26978;44.830;-0.674;2022-09-17T10:57:34;19.00;59.40
35692;DHT22;26978;44.830;-0.674;2022-09-17T11:00:14;18.80;59.00
35692;DHT22;26978;44.830;-0.674;2022-09-17T11:10:50;19.20;57.90
35692;DHT22;26978;44.830;-0.674;2022-09-17T11:15:47;19.40;57.30
35692;DHT22;26978;44.830;-0.674;2022-09-17T11:18:21;19.40;55.60
35692;DHT22;26978;44.830;-0.674;2022-09-17T11:21:02;19.30;56.20
35692;DHT22;26978;44.830;-0.674;2022-09-17T11:33:51;19.60;56.90
35692;DHT22;26978;44.830;-0.674;2022-09-17T11:36:22;19.90;57.20
35692;DHT22;26978;44.830;-0.674;2022-09-17T11:38:50;19.80;54.30
35692;DHT22;26978;44.830;-0.674;2022-09-17T11:41:20;19.70;54.50
35692;DHT22;26978;44.830;-0.674;2022-09-17T11:46:30;19.70;55.10
35692;DHT22;26978;44.830;-0.674;2022-09-17T11:49:04;19.90;54.90
35692;DHT22;26978;44.830;-0.674;2022-09-17T11:51:32;19.90;53.40
35692;DHT22;26978;44.830;-0.674;2022-09-17T11:54:06;19.90;52.60
35692;DHT22;26978;44.830;-0.674;2022-09-17T11:56:37;19.80;53.70
35692;DHT22;26978;44.830;-0.674;2022-09-17T11:59:25;19.80;52.50
35692;DHT22;26978;44.830;-0.674;2022-09-17T12:01:56;19.80;53.60
35692;DHT22;26978;44.830;-0.674;2022-09-17T12:04:31;19.90;52.70
35692;DHT22;26978;44.830;-0.674;2022-09-17T12:07:00;20.30;49.60
35692;DHT22;26978;44.830;-0.674;2022-09-17T12:09:27;20.40;47.00
35692;DHT22;26978;44.830;-0.674;2022-09-17T12:12:02;20.50;49.30
35692;DHT22;26978;44.830;-0.674;2022-09-17T12:15:17;20.40;49.50
35692;DHT22;26978;44.830;-0.674;2022-09-17T12:17:32;20.40;49.00
35692;DHT22;26978;44.830;-0.674;2022-09-17T12:20:01;20.50;47.80
35692;DHT22;26978;44.830;-0.674;2022-09-17T12:22:29;20.80;49.70
35692;DHT22;26978;44.830;-0.674;2022-09-17T12:24:56;20.90;48.40
35692;DHT22;26978;44.830;-0.674;2022-09-17T12:27:42;20.60;46.20
35692;DHT22;26978;44.830;-0.674;2022-09-17T12:30:19;20.80;46.30
35692;DHT22;26978;44.830;-0.674;2022-09-17T12:38:08;21.30;44.10
35692;DHT22;26978;44.830;-0.674;2022-09-17T12:48:18;20.90;41.90
35692;DHT22;26978;44.830;-0.674;2022-09-17T12:50:50;21.20;42.50
35692;DHT22;26978;44.830;-0.674;2022-09-17T12:58:26;21.50;40.20
35692;DHT22;26978;44.830;-0.674;2022-09-17T13:00:56;21.60;39.50
35692;DHT22;26978;44.830;-0.674;2022-09-17T13:03:26;21.90;41.20
35692;DHT22;26978;44.830;-0.674;2022-09-17T13:09:22;22.40;37.80
35692;DHT22;26978;44.830;-0.674;2022-09-17T13:11:49;22.80;37.50
35692;DHT22;26978;44.830;-0.674;2022-09-17T13:14:18;22.80;36.90
35692;DHT22;26978;44.830;-0.674;2022-09-17T13:17:04;22.90;36.70
35692;DHT22;26978;44.830;-0.674;2022-09-17T13:19:42;22.50;36.30
35692;DHT22;26978;44.830;-0.674;2022-09-17T13:22:21;22.90;38.30
35692;DHT22;26978;44.830;-0.674;2022-09-17T13:25:06;23.60;35.00
35692;DHT22;26978;44.830;-0.674;2022-09-17T13:27:33;23.70;35.70
35692;DHT22;26978;44.830;-0.674;2022-09-17T13:30:02;24.60;33.60
35692;DHT22;26978;44.830;-0.674;2022-09-17T13:37:43;25.50;31.30
35692;DHT22;26978;44.830;-0.674;2022-09-17T13:42:50;26.10;29.90
35692;DHT22;26978;44.830;-0.674;2022-09-17T13:45:19;26.40;29.60
35692;DHT22;26978;44.830;-0.674;2022-09-17T13:47:48;27.00;29.30
35692;DHT22;26978;44.830;-0.674;2022-09-17T13:50:25;26.60;28.50
35692;DHT22;26978;44.830;-0.674;2022-09-17T13:52:51;26.90;29.60
35692;DHT22;26978;44.830;-0.674;2022-09-17T13:55:52;27.60;27.90
35692;DHT22;26978;44.830;-0.674;2022-09-17T14:13:55;28.90;25.30
35692;DHT22;26978;44.830;-0.674;2022-09-17T14:18:59;27.90;25.70
35692;DHT22;26978;44.830;-0.674;2022-09-17T14:21:26;27.60;25.70
35692;DHT22;26978;44.830;-0.674;2022-09-17T14:23:54;27.40;26.30
35692;DHT22;26978;44.830;-0.674;2022-09-17T14:27:05;27.00;26.00
35692;DHT22;26978;44.830;-0.674;2022-09-17T14:29:13;28.50;26.20
35692;DHT22;26978;44.830;-0.674;2022-09-17T14:31:41;28.70;24.50
35692;DHT22;26978;44.830;-0.674;2022-09-17T14:34:10;27.90;25.40
35692;DHT22;26978;44.830;-0.674;2022-09-17T14:36:39;27.90;25.40
35692;DHT22;26978;44.830;-0.674;2022-09-17T14:39:11;28.40;25.50
35692;DHT22;26978;44.830;-0.674;2022-09-17T14:41:39;29.30;24.90
35692;DHT22;26978;44.830;-0.674;2022-09-17T14:44:07;28.70;25.20
35692;DHT22;26978;44.830;-0.674;2022-09-17T14:49:32;29.10;24.20
35692;DHT22;26978;44.830;-0.674;2022-09-17T14:51:57;29.20;24.40
35692;DHT22;26978;44.830;-0.674;2022-09-17T14:54:29;29.80;24.20
35692;DHT22;26978;44.830;-0.674;2022-09-17T15:01:49;28.30;23.90
35692;DHT22;26978;44.830;-0.674;2022-09-17T15:06:40;28.20;24.40
35692;DHT22;26978;44.830;-0.674;2022-09-17T15:11:41;28.40;24.10
35692;DHT22;26978;44.830;-0.674;2022-09-17T15:14:14;27.90;24.00
35692;DHT22;26978;44.830;-0.674;2022-09-17T15:16:45;27.50;24.00
35692;DHT22;26978;44.830;-0.674;2022-09-17T15:19:11;27.40;24.60
35692;DHT22;26978;44.830;-0.674;2022-09-17T15:21:40;28.70;24.30
35692;DHT22;26978;44.830;-0.674;2022-09-17T15:26:32;29.90;23.40
35692;DHT22;26978;44.830;-0.674;2022-09-17T15:28:59;29.40;23.30
35692;DHT22;26978;44.830;-0.674;2022-09-17T15:31:27;30.00;23.00
35692;DHT22;26978;44.830;-0.674;2022-09-17T15:33:52;29.60;21.90
35692;DHT22;26978;44.830;-0.674;2022-09-17T15:36:24;27.80;22.70
35692;DHT22;26978;44.830;-0.674;2022-09-17T15:38:51;28.60;23.00
35692;DHT22;26978;44.830;-0.674;2022-09-17T15:41:20;28.90;22.20
35692;DHT22;26978;44.830;-0.674;2022-09-17T15:43:46;28.00;22.80
35692;DHT22;26978;44.830;-0.674;2022-09-17T15:46:29;29.00;23.20
35692;DHT22;26978;44.830;-0.674;2022-09-17T15:48:56;28.20;22.60
35692;DHT22;26978;44.830;-0.674;2022-09-17T15:53:55;28.50;22.40
35692;DHT22;26978;44.830;-0.674;2022-09-17T15:56:22;28.00;22.40
35692;DHT22;26978;44.830;-0.674;2022-09-17T15:58:50;28.60;22.30
35692;DHT22;26978;44.830;-0.674;2022-09-17T16:11:13;29.30;22.90
35692;DHT22;26978;44.830;-0.674;2022-09-17T16:13:38;29.70;22.00
35692;DHT22;26978;44.830;-0.674;2022-09-17T16:16:04;30.10;21.80
35692;DHT22;26978;44.830;-0.674;2022-09-17T16:18:29;29.50;22.00
35692;DHT22;26978;44.830;-0.674;2022-09-17T16:20:55;28.90;22.60
35692;DHT22;26978;44.830;-0.674;2022-09-17T16:23:20;28.90;22.60
35692;DHT22;26978;44.830;-0.674;2022-09-17T16:25:46;28.60;22.50
35692;DHT22;26978;44.830;-0.674;2022-09-17T16:28:12;28.50;22.90
35692;DHT22;26978;44.830;-0.674;2022-09-17T16:30:42;28.70;23.10
35692;DHT22;26978;44.830;-0.674;2022-09-17T16:33:09;28.60;22.80
35692;DHT22;26978;44.830;-0.674;2022-09-17T16:35:35;28.60;23.30
35692;DHT22;26978;44.830;-0.674;2022-09-17T16:38:02;28.30;23.10
35692;DHT22;26978;44.830;-0.674;2022-09-17T16:40:28;28.10;22.90
35692;DHT22;26978;44.830;-0.674;2022-09-17T16:42:54;27.80;23.20
35692;DHT22;26978;44.830;-0.674;2022-09-17T16:45:20;27.60;23.30
35692;DHT22;26978;44.830;-0.674;2022-09-17T16:47:45;27.30;23.40
35692;DHT22;26978;44.830;-0.674;2022-09-17T16:50:12;26.80;23.80
35692;DHT22;26978;44.830;-0.674;2022-09-17T16:52:38;25.60;24.20
35692;DHT22;26978;44.830;-0.674;2022-09-17T16:55:04;25.00;25.30
35692;DHT22;26978;44.830;-0.674;2022-09-17T16:57:30;24.10;25.80
35692;DHT22;26978;44.830;-0.674;2022-09-17T16:59:56;23.60;26.40
35692;DHT22;26978;44.830;-0.674;2022-09-17T17:02:22;23.10;27.20
35692;DHT22;26978;44.830;-0.674;2022-09-17T17:04:48;22.70;27.50
35692;DHT22;26978;44.830;-0.674;2022-09-17T17:07:13;22.20;28.20
35692;DHT22;26978;44.830;-0.674;2022-09-17T17:09:39;21.80;28.90
35692;DHT22;26978;44.830;-0.674;2022-09-17T17:12:05;21.50;29.30
35692;DHT22;26978;44.830;-0.674;2022-09-17T17:14:30;21.30;29.70
35692;DHT22;26978;44.830;-0.674;2022-09-17T17:16:56;21.00;30.20
35692;DHT22;26978;44.830;-0.674;2022-09-17T17:19:21;20.80;31.00
35692;DHT22;26978;44.830;-0.674;2022-09-17T17:21:49;20.70;31.90
35692;DHT22;26978;44.830;-0.674;2022-09-17T17:24:15;20.70;32.70
35692;DHT22;26978;44.830;-0.674;2022-09-17T17:26:41;20.60;33.60
35692;DHT22;26978;44.830;-0.674;2022-09-17T17:29:06;20.40;34.30
35692;DHT22;26978;44.830;-0.674;2022-09-17T17:31:33;20.30;35.30
35692;DHT22;26978;44.830;-0.674;2022-09-17T17:33:59;20.20;36.60
35692;DHT22;26978;44.830;-0.674;2022-09-17T17:36:24;20.00;36.40
35692;DHT22;26978;44.830;-0.674;2022-09-17T17:38:54;19.90;36.60
35692;DHT22;26978;44.830;-0.674;2022-09-17T17:41:19;19.80;36.70
35692;DHT22;26978;44.830;-0.674;2022-09-17T17:43:47;19.70;37.40
35692;DHT22;26978;44.830;-0.674;2022-09-17T17:46:12;19.60;38.60
35692;DHT22;26978;44.830;-0.674;2022-09-17T17:48:39;19.50;38.90
35692;DHT22;26978;44.830;-0.674;2022-09-17T17:51:06;19.40;39.50
35692;DHT22;26978;44.830;-0.674;2022-09-17T17:53:32;19.20;40.30
35692;DHT22;26978;44.830;-0.674;2022-09-17T17:55:59;19.30;40.10
35692;DHT22;26978;44.830;-0.674;2022-09-17T17:58:24;19.10;40.50
35692;DHT22;26978;44.830;-0.674;2022-09-17T18:00:50;19.00;41.00
35692;DHT22;26978;44.830;-0.674;2022-09-17T18:03:16;18.80;42.10
35692;DHT22;26978;44.830;-0.674;2022-09-17T18:05:41;18.70;42.20
35692;DHT22;26978;44.830;-0.674;2022-09-17T18:08:07;18.60;42.30
35692;DHT22;26978;44.830;-0.674;2022-09-17T18:10:32;18.50;42.60
35692;DHT22;26978;44.830;-0.674;2022-09-17T18:12:58;18.40;43.30
35692;DHT22;26978;44.830;-0.674;2022-09-17T18:15:23;18.40;43.60
35692;DHT22;26978;44.830;-0.674;2022-09-17T18:17:49;18.30;44.20
35692;DHT22;26978;44.830;-0.674;2022-09-17T18:20:17;18.30;44.60
35692;DHT22;26978;44.830;-0.674;2022-09-17T18:22:43;18.10;45.30
35692;DHT22;26978;44.830;-0.674;2022-09-17T18:25:09;18.10;46.10
35692;DHT22;26978;44.830;-0.674;2022-09-17T18:27:34;18.00;46.90
35692;DHT22;26978;44.830;-0.674;2022-09-17T18:30:00;18.00;46.80
35692;DHT22;26978;44.830;-0.674;2022-09-17T18:32:26;17.90;47.40
35692;DHT22;26978;44.830;-0.674;2022-09-17T18:34:51;17.70;48.90
35692;DHT22;26978;44.830;-0.674;2022-09-17T18:37:17;17.60;49.30